Terminal Aerodrome Forecast
Issued by NWS Melbourne, FL

Home | Current Version | Previous Version | Text Only | Print | Product List | Glossary On
Versions: 1 2 3 4 5 6 7 8 9 10 11 12 13 14 15 16 17 18
000
FTUS42 KMLB 270300 AAA
TAFMCO
TAF AMD
KMCO 270300Z 2703/2724 02005KT P6SM BKN030 BKN040
      TEMPO 2709/2713 3SM BR BKN005
     FM271600 08006KT P6SM BKN035=

USA.gov is the U.S. government's official web portal to all federal, state and local government web resources and services.